createdAt,value
2022-11-17T00:00:29.136Z,100.00
2022-11-17T00:01:38.005Z,100.00
2022-11-17T00:02:39.870Z,100.00
2022-11-17T00:03:41.770Z,100.00
2022-11-17T00:04:44.929Z,100.00
2022-11-17T00:05:46.611Z,100.00
2022-11-17T00:06:48.319Z,100.00
2022-11-17T00:07:50.148Z,100.00
2022-11-17T00:08:53.141Z,100.00
2022-11-17T00:09:54.837Z,100.00
2022-11-17T00:11:00.725Z,100.00
2022-11-17T00:12:22.849Z,100.00
2022-11-17T00:13:43.155Z,100.00
2022-11-17T00:14:44.842Z,100.00
2022-11-17T00:15:46.552Z,100.00
2022-11-17T00:16:50.242Z,100.00
2022-11-17T00:18:42.764Z,100.00
2022-11-17T00:20:03.054Z,100.00
2022-11-17T00:21:21.351Z,100.00
2022-11-17T00:22:24.248Z,100.00
2022-11-17T00:23:47.018Z,100.00
2022-11-17T00:24:49.604Z,100.00
2022-11-17T00:25:51.385Z,100.00
2022-11-17T00:27:02.070Z,100.00
2022-11-17T00:28:03.870Z,100.00
2022-11-17T00:29:06.765Z,100.00
2022-11-17T00:30:09.187Z,100.00
2022-11-17T00:31:31.334Z,100.00
2022-11-17T00:32:51.644Z,100.00
2022-11-17T00:34:05.091Z,100.00
2022-11-17T00:35:07.655Z,100.00
2022-11-17T00:36:09.372Z,100.00
2022-11-17T00:37:14.557Z,100.00
2022-11-17T00:38:16.325Z,100.00
2022-11-17T00:39:21.154Z,100.00
2022-11-17T00:40:22.912Z,100.00
2022-11-17T00:41:24.979Z,100.00
2022-11-17T00:42:26.848Z,100.00
2022-11-17T00:43:28.569Z,100.00
2022-11-17T00:44:30.816Z,100.00
2022-11-17T00:45:32.566Z,100.00
2022-11-17T00:46:37.170Z,100.00
2022-11-17T00:47:38.946Z,100.00
2022-11-17T00:48:40.694Z,100.00
2022-11-17T00:49:42.949Z,100.00
2022-11-17T00:50:44.793Z,100.00
2022-11-17T00:51:46.508Z,100.00
2022-11-17T00:52:48.377Z,100.00
2022-11-17T00:53:50.104Z,100.00
2022-11-17T00:54:52.128Z,100.00
2022-11-17T00:55:53.910Z,100.00
2022-11-17T00:56:55.718Z,100.00
2022-11-17T00:57:57.681Z,100.00
2022-11-17T00:59:00.021Z,100.00
2022-11-17T01:00:01.824Z,100.00
2022-11-17T01:01:04.365Z,100.00
2022-11-17T01:02:06.101Z,100.00
2022-11-17T01:03:07.848Z,100.00
2022-11-17T01:04:12.907Z,100.00
2022-11-17T01:05:14.855Z,100.00
2022-11-17T01:06:19.577Z,100.00
2022-11-17T01:07:22.780Z,100.00
2022-11-17T01:08:24.533Z,100.00
2022-11-17T01:09:26.267Z,100.00
2022-11-17T01:10:28.083Z,100.00
2022-11-17T01:11:29.880Z,100.00
2022-11-17T01:12:31.618Z,100.00
2022-11-17T01:13:34.087Z,100.00
2022-11-17T01:14:36.087Z,100.00
2022-11-17T01:15:37.961Z,100.00
2022-11-17T01:16:40.182Z,100.00
2022-11-17T01:17:41.959Z,100.00
2022-11-17T01:18:45.568Z,100.00
2022-11-17T01:19:48.840Z,100.00
2022-11-17T01:20:50.575Z,100.00
2022-11-17T01:21:52.474Z,100.00
2022-11-17T01:22:55.225Z,100.00
2022-11-17T01:23:59.462Z,100.00
2022-11-17T01:25:01.254Z,100.00
2022-11-17T01:26:06.232Z,100.00
2022-11-17T01:27:08.173Z,100.00
2022-11-17T01:28:09.871Z,100.00
2022-11-17T01:29:14.137Z,100.00
2022-11-17T01:30:18.176Z,100.00
2022-11-17T01:31:35.659Z,100.00
2022-11-17T01:32:37.384Z,100.00
2022-11-17T01:33:39.646Z,100.00
2022-11-17T01:34:41.347Z,100.00
2022-11-17T01:35:43.025Z,100.00
2022-11-17T01:37:03.773Z,100.00
2022-11-17T01:38:05.637Z,100.00
2022-11-17T01:39:07.357Z,100.00
2022-11-17T01:40:14.022Z,100.00
2022-11-17T01:41:24.499Z,100.00
2022-11-17T01:42:27.557Z,100.00
2022-11-17T01:43:59.256Z,100.00
2022-11-17T01:45:04.815Z,100.00
2022-11-17T01:46:18.932Z,100.00
2022-11-17T01:47:27.453Z,100.00
2022-11-17T01:48:29.345Z,100.00
2022-11-17T01:49:33.004Z,100.00
2022-11-17T01:50:40.463Z,100.00
2022-11-17T01:51:48.487Z,100.00
2022-11-17T01:52:53.911Z,100.00
2022-11-17T01:53:55.653Z,100.00
2022-11-17T01:55:00.273Z,100.00
2022-11-17T01:56:09.430Z,100.00
2022-11-17T01:57:27.485Z,100.00
2022-11-17T01:58:36.049Z,100.00
2022-11-17T01:59:48.889Z,100.00
2022-11-17T02:00:52.497Z,100.00
2022-11-17T02:01:55.837Z,100.00
2022-11-17T02:02:58.845Z,100.00
2022-11-17T02:04:01.715Z,100.00
2022-11-17T02:05:29.332Z,100.00
2022-11-17T02:06:36.101Z,100.00
2022-11-17T02:07:42.895Z,100.00
2022-11-17T02:08:48.643Z,100.00
2022-11-17T02:09:52.903Z,100.00
2022-11-17T02:10:55.265Z,100.00
2022-11-17T02:11:59.498Z,100.00
2022-11-17T02:13:02.335Z,100.00
2022-11-17T02:14:05.279Z,100.00
2022-11-17T02:15:07.641Z,100.00
2022-11-17T02:16:14.156Z,100.00
2022-11-17T02:17:17.159Z,100.00
2022-11-17T02:18:20.097Z,100.00
2022-11-17T02:19:27.865Z,100.00
2022-11-17T02:20:51.572Z,100.00
2022-11-17T02:21:59.240Z,100.00
2022-11-17T02:23:37.607Z,100.00
2022-11-17T02:25:00.313Z,100.00
2022-11-17T02:26:21.433Z,100.00
2022-11-17T02:27:52.310Z,100.00
2022-11-17T02:29:19.485Z,100.00
2022-11-17T02:30:23.348Z,100.00
2022-11-17T02:31:53.376Z,100.00
2022-11-17T02:33:11.065Z,100.00
2022-11-17T02:34:49.859Z,100.00
2022-11-17T02:36:03.206Z,100.00
2022-11-17T02:37:15.947Z,100.00
2022-11-17T02:38:49.520Z,100.00
2022-11-17T02:40:13.619Z,100.00
2022-11-17T02:41:50.128Z,100.00
2022-11-17T02:43:18.785Z,100.00
2022-11-17T02:44:33.298Z,100.00
2022-11-17T02:45:47.365Z,100.00
2022-11-17T02:46:58.289Z,100.00
2022-11-17T02:48:07.401Z,100.00
2022-11-17T02:49:19.910Z,100.00
2022-11-17T02:50:28.613Z,100.00
2022-11-17T02:51:33.867Z,100.00
2022-11-17T02:52:36.319Z,100.00
2022-11-17T02:53:39.601Z,100.00
2022-11-17T02:54:41.811Z,100.00
2022-11-17T02:55:50.829Z,100.00
2022-11-17T02:56:52.640Z,100.00
2022-11-17T02:57:54.342Z,100.00
2022-11-17T02:59:04.867Z,100.00
2022-11-17T03:00:07.006Z,100.00
2022-11-17T03:01:41.857Z,100.00
2022-11-17T03:03:22.781Z,100.00
2022-11-17T03:04:43.128Z,100.00
2022-11-17T03:06:24.053Z,100.00
2022-11-17T03:08:02.265Z,100.00
2022-11-17T03:09:27.194Z,100.00
2022-11-17T03:10:49.503Z,100.00
2022-11-17T03:12:09.641Z,100.00
2022-11-17T03:13:14.428Z,100.00
2022-11-17T03:14:50.413Z,100.00
2022-11-17T03:16:01.383Z,100.00
2022-11-17T03:17:19.452Z,100.00
2022-11-17T03:18:41.553Z,100.00
2022-11-17T03:19:58.321Z,100.00
2022-11-17T03:21:11.078Z,100.00
2022-11-17T03:22:21.575Z,100.00
2022-11-17T03:23:35.421Z,100.00
2022-11-17T03:24:46.930Z,100.00
2022-11-17T03:25:55.688Z,100.00
2022-11-17T03:27:06.843Z,100.00
2022-11-17T03:28:12.132Z,100.00
2022-11-17T03:29:20.306Z,100.00
2022-11-17T03:30:25.059Z,100.00
2022-11-17T03:31:30.158Z,100.00
2022-11-17T03:32:38.551Z,100.00
2022-11-17T03:33:45.149Z,100.00
2022-11-17T03:34:55.896Z,100.00
2022-11-17T03:36:13.139Z,100.00
2022-11-17T03:37:19.513Z,100.00
2022-11-17T03:38:27.379Z,100.00
2022-11-17T03:39:41.002Z,100.00
2022-11-17T03:40:49.245Z,100.00
2022-11-17T03:42:00.741Z,100.00
2022-11-17T03:43:07.980Z,100.00
2022-11-17T03:44:11.830Z,100.00
2022-11-17T03:45:23.352Z,100.00
2022-11-17T03:46:28.527Z,100.00
2022-11-17T03:47:34.068Z,100.00
2022-11-17T03:48:46.976Z,100.00
2022-11-17T03:50:01.989Z,100.00
2022-11-17T03:51:09.636Z,100.00
2022-11-17T03:52:11.563Z,100.00
2022-11-17T03:53:14.193Z,100.00
2022-11-17T03:54:16.035Z,100.00
2022-11-17T03:55:17.993Z,100.00
2022-11-17T03:56:19.560Z,100.00
2022-11-17T03:57:49.228Z,100.00
2022-11-17T03:59:15.287Z,100.00
2022-11-17T04:00:19.888Z,100.00
2022-11-17T04:01:23.213Z,100.00
2022-11-17T04:02:27.066Z,100.00
2022-11-17T04:03:34.368Z,100.00
2022-11-17T04:04:55.129Z,100.00
2022-11-17T04:05:57.005Z,100.00
2022-11-17T04:06:58.769Z,100.00
2022-11-17T04:08:00.513Z,100.00
2022-11-17T04:09:02.306Z,100.00
2022-11-17T04:10:05.273Z,100.00
2022-11-17T04:11:25.372Z,100.00
2022-11-17T04:12:46.155Z,100.00
2022-11-17T04:14:06.378Z,100.00
2022-11-17T04:15:28.708Z,100.00
2022-11-17T04:16:30.491Z,100.00
2022-11-17T04:17:32.166Z,100.00
2022-11-17T04:18:33.879Z,100.00
2022-11-17T04:19:35.600Z,100.00
2022-11-17T04:20:37.547Z,100.00
2022-11-17T04:21:39.268Z,100.00
2022-11-17T04:22:41.009Z,100.00
2022-11-17T04:23:42.796Z,100.00
2022-11-17T04:24:44.457Z,100.00
2022-11-17T04:26:08.353Z,100.00
2022-11-17T04:27:28.851Z,100.00
2022-11-17T04:28:39.045Z,100.00
2022-11-17T04:29:40.787Z,100.00
2022-11-17T04:30:42.492Z,100.00
2022-11-17T04:31:44.347Z,100.00
2022-11-17T04:32:46.438Z,100.00
2022-11-17T04:33:57.136Z,100.00
2022-11-17T04:34:58.804Z,100.00
2022-11-17T04:36:00.896Z,100.00
2022-11-17T04:37:07.983Z,100.00
2022-11-17T04:38:10.243Z,100.00
2022-11-17T04:39:16.068Z,100.00
2022-11-17T04:40:17.904Z,100.00
2022-11-17T04:41:40.364Z,100.00
2022-11-17T04:42:42.048Z,100.00
2022-11-17T04:43:43.740Z,100.00
2022-11-17T04:44:45.479Z,100.00
2022-11-17T04:45:47.392Z,100.00
2022-11-17T04:46:49.520Z,100.00
2022-11-17T04:47:51.377Z,100.00
2022-11-17T04:48:55.174Z,100.00
2022-11-17T04:49:56.868Z,100.00
2022-11-17T04:50:58.614Z,100.00
2022-11-17T04:52:00.701Z,100.00
2022-11-17T04:53:02.588Z,100.00
2022-11-17T04:54:06.115Z,100.00
2022-11-17T04:55:08.193Z,100.00
2022-11-17T04:56:10.423Z,100.00
2022-11-17T04:57:12.132Z,100.00
2022-11-17T04:58:14.419Z,100.00
2022-11-17T04:59:16.580Z,100.00
2022-11-17T05:00:18.548Z,100.00
2022-11-17T05:01:22.330Z,100.00
2022-11-17T05:02:24.070Z,100.00
2022-11-17T05:03:25.770Z,100.00
2022-11-17T05:04:46.030Z,100.00
2022-11-17T05:05:48.980Z,100.00
2022-11-17T05:06:50.708Z,100.00
2022-11-17T05:07:52.389Z,100.00
2022-11-17T05:08:56.027Z,100.00
2022-11-17T05:09:57.873Z,100.00
2022-11-17T05:11:18.276Z,100.00
2022-11-17T05:12:38.598Z,100.00
2022-11-17T05:13:40.557Z,100.00
2022-11-17T05:14:42.352Z,100.00
2022-11-17T05:16:02.564Z,100.00
2022-11-17T05:17:09.854Z,100.00
2022-11-17T05:18:12.023Z,100.00
2022-11-17T05:19:20.099Z,100.00
2022-11-17T05:20:21.758Z,100.00
2022-11-17T05:21:23.448Z,100.00
2022-11-17T05:22:43.669Z,100.00
2022-11-17T05:23:54.388Z,100.00
2022-11-17T05:24:56.699Z,100.00
2022-11-17T05:25:58.481Z,100.00
2022-11-17T05:27:00.166Z,100.00
2022-11-17T05:28:01.842Z,100.00
2022-11-17T05:29:07.781Z,100.00
2022-11-17T05:30:10.345Z,100.00
2022-11-17T05:31:12.370Z,100.00
2022-11-17T05:32:14.465Z,100.00
2022-11-17T05:33:16.182Z,100.00
2022-11-17T05:34:18.052Z,100.00
2022-11-17T05:35:19.707Z,100.00
2022-11-17T05:36:23.434Z,100.00
2022-11-17T05:37:25.143Z,100.00
2022-11-17T05:38:27.100Z,100.00
2022-11-17T05:39:28.833Z,100.00
2022-11-17T05:40:30.523Z,100.00
2022-11-17T05:41:32.914Z,100.00
2022-11-17T05:42:35.868Z,100.00
2022-11-17T05:43:37.829Z,100.00
2022-11-17T05:44:40.014Z,100.00
2022-11-17T05:45:42.259Z,100.00
2022-11-17T05:46:43.942Z,100.00
2022-11-17T05:47:45.689Z,100.00
2022-11-17T05:48:52.176Z,100.00
2022-11-17T05:49:54.050Z,100.00
2022-11-17T05:50:57.194Z,100.00
2022-11-17T05:51:59.131Z,100.00
2022-11-17T05:53:00.931Z,100.00
2022-11-17T05:54:02.719Z,100.00
2022-11-17T05:55:04.823Z,100.00
2022-11-17T05:56:28.370Z,100.00
2022-11-17T05:57:33.434Z,100.00
2022-11-17T05:58:41.861Z,100.00
2022-11-17T05:59:50.731Z,100.00
2022-11-17T06:00:56.889Z,100.00
2022-11-17T06:02:07.488Z,100.00
2022-11-17T06:03:18.694Z,100.00
2022-11-17T06:04:20.806Z,100.00
2022-11-17T06:05:25.919Z,100.00
2022-11-17T06:06:30.068Z,100.00
2022-11-17T06:07:32.624Z,100.00
2022-11-17T06:08:35.796Z,100.00
2022-11-17T06:09:41.592Z,100.00
2022-11-17T06:10:43.575Z,100.00
2022-11-17T06:11:45.625Z,100.00
2022-11-17T06:12:47.842Z,100.00
2022-11-17T06:13:49.585Z,100.00
2022-11-17T06:14:51.319Z,99.97
2022-11-17T06:15:58.872Z,100.00
2022-11-17T06:17:25.179Z,100.00
2022-11-17T06:18:34.263Z,99.94
2022-11-17T06:19:48.036Z,99.72
2022-11-17T06:20:53.569Z,99.75
2022-11-17T06:22:11.501Z,99.44
2022-11-17T06:23:15.922Z,99.55
2022-11-17T06:24:19.455Z,99.46
2022-11-17T06:25:21.680Z,99.24
2022-11-17T06:26:23.569Z,98.89
2022-11-17T06:27:26.628Z,99.12
2022-11-17T06:28:32.359Z,98.85
2022-11-17T06:29:37.142Z,98.77
2022-11-17T06:30:44.300Z,98.41
2022-11-17T06:31:46.502Z,98.34
2022-11-17T06:32:50.503Z,98.22
2022-11-17T06:33:52.409Z,98.38
2022-11-17T06:34:56.477Z,98.33
2022-11-17T06:36:01.622Z,97.44
2022-11-17T06:37:03.344Z,97.75
2022-11-17T06:38:05.264Z,97.85
2022-11-17T06:39:07.021Z,97.79
2022-11-17T06:40:13.349Z,97.93
2022-11-17T06:41:15.149Z,97.89
2022-11-17T06:42:16.857Z,98.15
2022-11-17T06:43:18.769Z,98.02
2022-11-17T06:44:20.465Z,97.95
2022-11-17T06:45:22.862Z,98.25
2022-11-17T06:46:24.561Z,98.34
2022-11-17T06:47:26.247Z,97.93
2022-11-17T06:48:27.980Z,97.83
2022-11-17T06:49:29.667Z,97.77
2022-11-17T06:50:31.931Z,97.80
2022-11-17T06:51:35.091Z,98.15
2022-11-17T06:52:39.777Z,98.27
2022-11-17T06:53:41.510Z,98.10
2022-11-17T06:54:43.177Z,98.04
2022-11-17T06:55:49.060Z,97.98
2022-11-17T06:56:52.344Z,97.87
2022-11-17T06:58:03.852Z,97.84
2022-11-17T06:59:05.812Z,97.88
2022-11-17T07:00:08.739Z,97.83
2022-11-17T07:01:14.187Z,98.04
2022-11-17T07:02:15.960Z,97.74
2022-11-17T07:03:17.732Z,97.81
2022-11-17T07:04:19.426Z,97.85
2022-11-17T07:05:21.160Z,98.19
2022-11-17T07:06:23.041Z,98.11
2022-11-17T07:07:24.844Z,98.12
2022-11-17T07:08:27.108Z,97.87
2022-11-17T07:09:28.904Z,97.83
2022-11-17T07:10:32.253Z,98.05
2022-11-17T07:11:36.182Z,98.32
2022-11-17T07:12:37.945Z,97.94
2022-11-17T07:13:40.450Z,98.22
2022-11-17T07:14:42.283Z,98.01
2022-11-17T07:15:43.968Z,98.15
2022-11-17T07:16:45.644Z,97.82
2022-11-17T07:17:48.187Z,97.74
2022-11-17T07:18:50.053Z,97.78
2022-11-17T07:19:53.548Z,97.87
2022-11-17T07:20:55.348Z,97.69
2022-11-17T07:21:57.081Z,97.85
2022-11-17T07:22:59.967Z,97.96
2022-11-17T07:24:02.183Z,98.10
2022-11-17T07:25:04.880Z,97.87
2022-11-17T07:26:07.347Z,98.18
2022-11-17T07:27:09.045Z,98.22
2022-11-17T07:28:10.737Z,98.11
2022-11-17T07:29:12.436Z,98.04
2022-11-17T07:30:14.602Z,97.93
2022-11-17T07:31:16.638Z,97.71
2022-11-17T07:32:18.381Z,97.89
2022-11-17T07:33:21.289Z,97.98
2022-11-17T07:34:23.062Z,97.60
2022-11-17T07:35:24.870Z,97.54
2022-11-17T07:36:26.777Z,97.71
2022-11-17T07:37:32.097Z,98.05
2022-11-17T07:38:35.605Z,97.93
2022-11-17T07:39:37.623Z,97.74
2022-11-17T07:40:40.225Z,97.67
2022-11-17T07:41:42.070Z,97.37
2022-11-17T07:42:49.589Z,97.29
2022-11-17T07:43:51.899Z,97.21
2022-11-17T07:44:54.243Z,97.14
2022-11-17T07:45:57.004Z,97.30
2022-11-17T07:46:58.749Z,97.20
2022-11-17T07:48:02.661Z,97.21
2022-11-17T07:49:04.391Z,97.11
2022-11-17T07:50:06.485Z,97.25
2022-11-17T07:51:08.583Z,97.58
2022-11-17T07:52:10.349Z,97.67
2022-11-17T07:53:13.703Z,97.48
2022-11-17T07:54:15.393Z,97.53
2022-11-17T07:55:17.856Z,97.42
2022-11-17T07:56:19.668Z,97.53
2022-11-17T07:57:21.513Z,96.87
2022-11-17T07:58:25.507Z,96.56
2022-11-17T07:59:27.452Z,96.05
2022-11-17T08:00:31.616Z,96.02
2022-11-17T08:01:33.394Z,96.30
2022-11-17T08:02:35.343Z,95.94
2022-11-17T08:03:37.182Z,96.17
2022-11-17T08:04:38.917Z,96.10
2022-11-17T08:05:43.564Z,96.20
2022-11-17T08:06:45.706Z,95.94
2022-11-17T08:07:56.039Z,95.44
2022-11-17T08:08:57.719Z,95.58
2022-11-17T08:09:59.428Z,95.26
2022-11-17T08:11:06.866Z,95.08
2022-11-17T08:12:08.857Z,94.68
2022-11-17T08:13:11.303Z,94.55
2022-11-17T08:14:13.070Z,94.64
2022-11-17T08:15:14.890Z,94.48
2022-11-17T08:16:17.416Z,94.44
2022-11-17T08:17:19.070Z,94.40
2022-11-17T08:18:20.755Z,94.22
2022-11-17T08:19:22.754Z,94.28
2022-11-17T08:20:26.110Z,94.61
2022-11-17T08:21:27.806Z,94.56
2022-11-17T08:22:29.500Z,94.77
2022-11-17T08:23:32.478Z,94.58
2022-11-17T08:24:34.312Z,94.47
2022-11-17T08:25:36.084Z,94.52
2022-11-17T08:26:38.873Z,94.18
2022-11-17T08:27:41.702Z,93.42
2022-11-17T08:28:43.428Z,93.30
2022-11-17T08:29:45.755Z,93.46
2022-11-17T08:30:47.461Z,93.49
2022-11-17T08:31:49.284Z,93.46
2022-11-17T08:32:53.509Z,92.71
2022-11-17T08:33:55.562Z,91.84
2022-11-17T08:34:57.278Z,92.06
2022-11-17T08:36:00.517Z,92.20
2022-11-17T08:37:02.235Z,92.43
2022-11-17T08:38:04.010Z,92.55
2022-11-17T08:39:06.452Z,92.53
2022-11-17T08:40:08.879Z,92.48
2022-11-17T08:41:10.685Z,92.23
2022-11-17T08:42:12.407Z,92.19
2022-11-17T08:43:14.473Z,91.83
2022-11-17T08:44:16.152Z,91.76
2022-11-17T08:45:17.941Z,91.71
2022-11-17T08:46:19.644Z,91.82
2022-11-17T08:47:21.352Z,91.66
2022-11-17T08:48:23.686Z,92.06
2022-11-17T08:49:25.419Z,91.91
2022-11-17T08:50:27.169Z,92.13
2022-11-17T08:51:29.287Z,92.15
2022-11-17T08:52:31.074Z,92.23
2022-11-17T08:53:33.183Z,92.43
2022-11-17T08:54:35.052Z,92.64
2022-11-17T08:55:41.034Z,92.22
2022-11-17T08:56:43.179Z,92.02
2022-11-17T08:57:44.937Z,91.88
2022-11-17T08:58:46.691Z,91.82
2022-11-17T08:59:49.003Z,91.84
2022-11-17T09:00:50.716Z,91.75
2022-11-17T09:01:53.467Z,91.65
2022-11-17T09:02:55.177Z,91.89
2022-11-17T09:03:56.980Z,91.82
2022-11-17T09:04:58.678Z,91.60
2022-11-17T09:06:02.114Z,91.76
2022-11-17T09:07:03.884Z,91.49
2022-11-17T09:08:22.802Z,91.03
2022-11-17T09:09:30.484Z,90.98
2022-11-17T09:10:32.379Z,91.39
2022-11-17T09:11:34.107Z,91.53
2022-11-17T09:12:35.815Z,91.52
2022-11-17T09:13:38.973Z,91.20
2022-11-17T09:14:40.795Z,91.06
2022-11-17T09:15:42.615Z,90.60
2022-11-17T09:16:44.333Z,90.46
2022-11-17T09:17:47.984Z,90.39
2022-11-17T09:18:55.569Z,90.20
2022-11-17T09:19:57.365Z,89.94
2022-11-17T09:21:15.035Z,89.79
2022-11-17T09:22:16.863Z,89.63
2022-11-17T09:23:18.560Z,89.22
2022-11-17T09:24:20.371Z,89.21
2022-11-17T09:25:22.405Z,89.13
2022-11-17T09:26:24.153Z,89.56
2022-11-17T09:27:25.872Z,89.64
2022-11-17T09:28:27.560Z,89.77
2022-11-17T09:29:30.783Z,89.67
2022-11-17T09:30:32.501Z,89.54
2022-11-17T09:31:34.655Z,89.87
2022-11-17T09:32:36.539Z,89.90
2022-11-17T09:33:38.568Z,89.79
2022-11-17T09:34:40.328Z,89.69
2022-11-17T09:35:42.437Z,89.58
2022-11-17T09:36:44.122Z,89.31
2022-11-17T09:37:45.824Z,89.93
2022-11-17T09:38:47.955Z,89.80
2022-11-17T09:39:49.664Z,89.61
2022-11-17T09:40:55.033Z,89.36
2022-11-17T09:41:57.481Z,89.50
2022-11-17T09:42:59.250Z,89.80
2022-11-17T09:44:13.070Z,89.47
2022-11-17T09:45:25.970Z,89.53
2022-11-17T09:46:52.090Z,89.18
2022-11-17T09:48:33.778Z,89.25
2022-11-17T09:49:38.762Z,89.60
2022-11-17T09:50:41.350Z,89.86
2022-11-17T09:51:48.379Z,89.80
2022-11-17T09:52:53.005Z,89.80
2022-11-17T09:54:08.161Z,89.83
2022-11-17T09:55:34.431Z,89.50
2022-11-17T09:56:37.105Z,89.44
2022-11-17T09:57:48.271Z,89.57
2022-11-17T09:59:01.416Z,89.62
2022-11-17T10:00:23.001Z,89.85
2022-11-17T10:01:29.038Z,90.54
2022-11-17T10:02:30.922Z,90.37
2022-11-17T10:03:43.622Z,90.48
2022-11-17T10:04:46.772Z,90.01
2022-11-17T10:05:50.130Z,89.94
2022-11-17T10:06:51.946Z,89.67
2022-11-17T10:07:57.532Z,89.66
2022-11-17T10:09:25.687Z,89.45
2022-11-17T10:10:38.018Z,89.34
2022-11-17T10:11:42.819Z,89.14
2022-11-17T10:12:53.162Z,89.03
2022-11-17T10:13:54.894Z,88.95
2022-11-17T10:14:57.729Z,89.04
2022-11-17T10:16:08.099Z,89.19
2022-11-17T10:17:10.767Z,89.32
2022-11-17T10:18:15.052Z,89.39
2022-11-17T10:19:21.221Z,89.27
2022-11-17T10:20:23.128Z,89.36
2022-11-17T10:21:30.000Z,89.12
2022-11-17T10:22:36.912Z,89.04
2022-11-17T10:23:46.852Z,89.31
2022-11-17T10:24:55.274Z,89.12
2022-11-17T10:25:58.753Z,88.60
2022-11-17T10:27:04.284Z,88.44
2022-11-17T10:28:08.947Z,88.81
2022-11-17T10:29:14.073Z,88.49
2022-11-17T10:30:18.831Z,87.98
2022-11-17T10:31:21.011Z,87.55
2022-11-17T10:32:23.149Z,87.79
2022-11-17T10:33:46.854Z,87.82
2022-11-17T10:34:48.676Z,87.89
2022-11-17T10:35:56.716Z,87.69
2022-11-17T10:37:06.349Z,87.81
2022-11-17T10:38:07.986Z,87.85
2022-11-17T10:39:32.747Z,87.83
2022-11-17T10:40:40.485Z,87.97
2022-11-17T10:41:50.838Z,87.73
2022-11-17T10:43:04.820Z,87.47
2022-11-17T10:44:19.579Z,87.04
2022-11-17T10:45:21.630Z,87.00
2022-11-17T10:46:24.342Z,86.47
2022-11-17T10:47:29.101Z,87.17
2022-11-17T10:48:37.365Z,87.45
2022-11-17T10:49:39.809Z,87.17
2022-11-17T10:50:55.261Z,87.22
2022-11-17T10:52:16.146Z,87.48
2022-11-17T10:53:43.372Z,87.13
2022-11-17T10:54:49.804Z,86.61
2022-11-17T10:56:11.872Z,87.11
2022-11-17T10:57:21.909Z,87.20
2022-11-17T10:58:32.588Z,87.43
2022-11-17T10:59:55.070Z,87.43
2022-11-17T11:01:02.397Z,87.37
2022-11-17T11:02:30.742Z,87.31
2022-11-17T11:03:35.501Z,87.88
2022-11-17T11:05:08.173Z,87.76
2022-11-17T11:06:31.277Z,87.52
2022-11-17T11:07:33.068Z,86.87
2022-11-17T11:08:55.366Z,87.05
2022-11-17T11:10:18.585Z,86.90
2022-11-17T11:11:49.587Z,87.21
2022-11-17T11:13:19.245Z,87.15
2022-11-17T11:14:52.854Z,86.68
2022-11-17T11:15:54.759Z,86.67
2022-11-17T11:16:57.245Z,86.33
2022-11-17T11:17:58.992Z,86.70
2022-11-17T11:19:00.802Z,86.62
2022-11-17T11:20:03.079Z,86.75
2022-11-17T11:21:13.520Z,86.57
2022-11-17T11:22:33.533Z,86.64
2022-11-17T11:23:54.000Z,86.70
2022-11-17T11:25:15.605Z,86.63
2022-11-17T11:26:43.424Z,86.30
2022-11-17T11:28:09.722Z,86.36
2022-11-17T11:29:11.637Z,86.43
2022-11-17T11:30:17.719Z,86.72
2022-11-17T11:31:31.441Z,87.16
2022-11-17T11:32:50.116Z,87.29
2022-11-17T11:34:04.356Z,87.01
2022-11-17T11:35:05.970Z,87.20
2022-11-17T11:36:25.751Z,87.06
2022-11-17T11:37:42.089Z,87.12
2022-11-17T11:39:00.763Z,86.82
2022-11-17T11:40:29.256Z,86.68
2022-11-17T11:42:09.242Z,86.60
2022-11-17T11:43:27.672Z,86.53
2022-11-17T11:44:39.536Z,86.68
2022-11-17T11:46:39.891Z,86.71
2022-11-17T11:47:59.029Z,86.40
2022-11-17T11:49:28.221Z,86.16
2022-11-17T11:50:41.996Z,86.13
2022-11-17T11:51:49.365Z,86.53
2022-11-17T11:53:00.437Z,86.54
2022-11-17T11:54:15.209Z,86.50
2022-11-17T11:55:36.571Z,86.33
2022-11-17T11:56:48.085Z,86.34
2022-11-17T11:58:04.385Z,86.67
2022-11-17T12:00:03.743Z,86.56
2022-11-17T12:01:12.074Z,86.12
2022-11-17T12:02:14.609Z,86.70
2022-11-17T12:03:16.401Z,87.06
2022-11-17T12:04:40.350Z,86.83
2022-11-17T12:06:21.562Z,87.19
2022-11-17T12:07:48.490Z,86.80
2022-11-17T12:09:03.976Z,86.41
2022-11-17T12:10:21.793Z,86.90
2022-11-17T12:11:42.708Z,87.18
2022-11-17T12:12:46.508Z,87.19
2022-11-17T12:13:53.978Z,87.54
2022-11-17T12:15:11.399Z,87.22
2022-11-17T12:16:18.775Z,87.79
2022-11-17T12:17:23.441Z,87.80
2022-11-17T12:18:27.874Z,88.03
2022-11-17T12:20:10.510Z,87.80
2022-11-17T12:21:21.630Z,87.80
2022-11-17T12:22:49.894Z,87.76
2022-11-17T12:24:13.689Z,88.00
2022-11-17T12:25:29.426Z,88.16
2022-11-17T12:26:33.557Z,88.39
2022-11-17T12:27:35.211Z,87.81
2022-11-17T12:28:39.952Z,87.89
2022-11-17T12:29:47.500Z,88.01
2022-11-17T12:30:52.646Z,88.27
2022-11-17T12:31:57.172Z,88.03
2022-11-17T12:33:00.833Z,88.13
2022-11-17T12:34:02.575Z,87.95
2022-11-17T12:35:24.336Z,88.30
2022-11-17T12:36:31.585Z,88.36
2022-11-17T12:37:33.623Z,88.50
2022-11-17T12:38:39.716Z,88.07
2022-11-17T12:39:59.374Z,87.86
2022-11-17T12:41:01.286Z,88.32
2022-11-17T12:42:07.452Z,88.45
2022-11-17T12:43:27.963Z,87.82
2022-11-17T12:44:38.858Z,88.01
2022-11-17T12:45:52.736Z,87.66
2022-11-17T12:47:09.940Z,88.03
2022-11-17T12:48:32.837Z,88.46
2022-11-17T12:49:51.982Z,88.33
2022-11-17T12:51:09.109Z,88.22
2022-11-17T12:52:39.581Z,88.39
2022-11-17T12:53:59.771Z,88.18
2022-11-17T12:55:17.768Z,88.40
2022-11-17T12:56:50.295Z,88.31
2022-11-17T12:58:10.280Z,88.51
2022-11-17T12:59:31.114Z,88.54
2022-11-17T13:00:47.554Z,88.21
2022-11-17T13:02:05.574Z,87.90
2022-11-17T13:03:28.255Z,88.37
2022-11-17T13:04:49.778Z,88.38
2022-11-17T13:07:36.246Z,88.32
2022-11-17T13:08:38.314Z,87.85
2022-11-17T13:09:40.030Z,87.64
2022-11-17T13:10:41.803Z,87.84
2022-11-17T13:11:59.136Z,87.86
2022-11-17T13:13:19.257Z,87.20
2022-11-17T13:14:20.995Z,87.38
2022-11-17T13:15:23.959Z,87.56
2022-11-17T13:16:26.344Z,87.63
2022-11-17T13:17:32.251Z,87.31
2022-11-17T13:18:41.045Z,87.13
2022-11-17T13:19:42.848Z,86.84
2022-11-17T13:20:48.624Z,86.85
2022-11-17T13:22:21.259Z,86.82
2022-11-17T13:23:29.610Z,87.01
2022-11-17T13:24:37.538Z,86.91
2022-11-17T13:25:39.336Z,87.12
2022-11-17T13:26:41.057Z,87.18
2022-11-17T13:27:49.415Z,87.46
2022-11-17T13:29:07.304Z,87.29
2022-11-17T13:30:30.028Z,87.57
2022-11-17T13:31:32.214Z,87.27
2022-11-17T13:32:34.062Z,87.07
2022-11-17T13:33:40.175Z,86.88
2022-11-17T13:34:47.907Z,87.01
2022-11-17T13:36:04.634Z,86.95
2022-11-17T13:37:16.968Z,86.62
2022-11-17T13:38:23.694Z,86.56
2022-11-17T13:39:29.917Z,87.01
2022-11-17T13:40:34.676Z,87.33
2022-11-17T13:41:40.212Z,86.82
2022-11-17T13:42:43.348Z,86.99
2022-11-17T13:43:47.274Z,86.88
2022-11-17T13:44:49.680Z,87.30
2022-11-17T13:45:54.688Z,87.13
2022-11-17T13:46:56.478Z,87.08
2022-11-17T13:47:59.425Z,87.04
2022-11-17T13:49:01.197Z,87.04
2022-11-17T13:50:22.841Z,87.19
2022-11-17T13:51:39.318Z,87.20
2022-11-17T13:52:46.688Z,87.12
2022-11-17T13:54:03.241Z,86.87
2022-11-17T13:55:20.004Z,86.73
2022-11-17T13:56:53.110Z,86.67
2022-11-17T13:58:03.146Z,86.65
2022-11-17T13:59:37.344Z,86.40
2022-11-17T14:00:39.167Z,86.58
2022-11-17T14:01:41.050Z,86.50
2022-11-17T14:03:31.680Z,86.74
2022-11-17T14:04:33.506Z,87.02
2022-11-17T14:05:35.249Z,86.92
2022-11-17T14:06:58.329Z,87.00
2022-11-17T14:08:20.063Z,87.24
2022-11-17T14:09:22.615Z,87.07
2022-11-17T14:10:31.584Z,86.83
2022-11-17T14:11:33.468Z,86.78
2022-11-17T14:12:35.182Z,86.88
2022-11-17T14:13:47.058Z,87.01
2022-11-17T14:14:48.851Z,87.00
2022-11-17T14:15:54.382Z,87.17
2022-11-17T14:16:57.590Z,86.84
2022-11-17T14:18:02.272Z,86.76
2022-11-17T14:19:26.058Z,87.03
2022-11-17T14:20:35.690Z,86.89
2022-11-17T14:21:59.009Z,86.84
2022-11-17T14:23:05.952Z,86.94
2022-11-17T14:24:12.555Z,86.64